createdAt,value
2018-07-03T00:00:32.834Z,0
2018-07-03T00:01:13.856Z,0
2018-07-03T00:01:54.320Z,0
2018-07-03T00:02:34.781Z,0
2018-07-03T00:03:16.041Z,0
2018-07-03T00:03:56.529Z,0
2018-07-03T00:04:37.896Z,0
2018-07-03T00:05:18.364Z,0
2018-07-03T00:05:59.622Z,0
2018-07-03T00:06:40.168Z,0
2018-07-03T00:07:20.678Z,0
2018-07-03T00:08:01.757Z,0
2018-07-03T00:08:42.225Z,0
2018-07-03T00:09:22.757Z,0
2018-07-03T00:10:03.227Z,0
2018-07-03T00:10:44.298Z,0
2018-07-03T00:11:24.798Z,0
2018-07-03T00:12:05.300Z,0
2018-07-03T00:12:45.809Z,0
2018-07-03T00:13:26.291Z,0
2018-07-03T00:14:07.760Z,0
2018-07-03T00:14:48.287Z,0
2018-07-03T00:15:28.776Z,0
2018-07-03T00:16:09.276Z,0
2018-07-03T00:16:49.786Z,0
2018-07-03T00:17:31.270Z,0
2018-07-03T00:18:11.737Z,0
2018-07-03T00:18:52.192Z,0
2018-07-03T00:19:32.727Z,0
2018-07-03T00:20:13.220Z,0
2018-07-03T00:20:53.756Z,0
2018-07-03T00:21:34.211Z,0
2018-07-03T00:22:15.246Z,0
2018-07-03T00:22:55.770Z,0
2018-07-03T00:23:36.282Z,0
2018-07-03T00:24:17.501Z,0
2018-07-03T00:24:58.028Z,0
2018-07-03T00:25:38.489Z,0
2018-07-03T00:26:18.984Z,0
2018-07-03T00:26:59.559Z,0
2018-07-03T00:27:40.869Z,0
2018-07-03T00:28:21.381Z,0
2018-07-03T00:29:01.948Z,0
2018-07-03T00:29:42.409Z,0
2018-07-03T00:30:22.878Z,0
2018-07-03T00:31:03.363Z,0
2018-07-03T00:31:43.829Z,0
2018-07-03T00:32:24.349Z,0
2018-07-03T00:33:04.829Z,0
2018-07-03T00:33:45.311Z,0
2018-07-03T00:34:26.410Z,0
2018-07-03T00:35:06.881Z,0
2018-07-03T00:35:48.351Z,0
2018-07-03T00:36:28.816Z,0
2018-07-03T00:37:09.370Z,0
2018-07-03T00:39:28.501Z,0
2018-07-03T00:40:10.002Z,0
2018-07-03T00:40:50.526Z,0
2018-07-03T00:41:31.031Z,0
2018-07-03T00:42:11.551Z,0
2018-07-03T00:42:52.908Z,0
2018-07-03T00:43:33.406Z,0
2018-07-03T00:44:13.932Z,0
2018-07-03T00:44:54.429Z,0
2018-07-03T00:45:35.521Z,0
2018-07-03T00:46:16.044Z,0
2018-07-03T00:46:58.426Z,0
2018-07-03T00:47:38.925Z,0
2018-07-03T00:48:19.380Z,0
2018-07-03T00:49:00.408Z,0
2018-07-03T00:49:41.912Z,0
2018-07-03T00:50:22.413Z,0
2018-07-03T00:51:02.911Z,0
2018-07-03T00:51:43.472Z,0
2018-07-03T00:52:23.943Z,0
2018-07-03T00:53:07.044Z,0
2018-07-03T00:53:47.537Z,0
2018-07-03T00:54:27.958Z,0
2018-07-03T00:55:09.408Z,0
2018-07-03T00:55:49.928Z,0
2018-07-03T00:56:31.390Z,0
2018-07-03T00:57:11.890Z,0
2018-07-03T00:57:52.397Z,0
2018-07-03T00:58:32.899Z,0
2018-07-03T00:59:13.381Z,0
2018-07-03T00:59:53.891Z,0
2018-07-03T01:00:34.412Z,0
2018-07-03T01:01:14.917Z,0
2018-07-03T01:01:56.119Z,0
2018-07-03T01:02:37.205Z,0
2018-07-03T01:03:18.217Z,0
2018-07-03T01:03:58.719Z,0
2018-07-03T01:04:39.222Z,0
2018-07-03T01:05:19.732Z,0
2018-07-03T01:06:00.212Z,0
2018-07-03T01:06:40.735Z,0
2018-07-03T01:07:21.242Z,0
2018-07-03T01:08:02.448Z,0
2018-07-03T01:08:42.951Z,0
2018-07-03T01:09:24.010Z,0
2018-07-03T01:10:04.511Z,0
2018-07-03T01:10:45.928Z,0
2018-07-03T01:11:26.448Z,0
2018-07-03T01:12:06.927Z,0
2018-07-03T01:12:48.121Z,0
2018-07-03T01:13:29.212Z,0
2018-07-03T01:14:09.721Z,0
2018-07-03T01:14:50.176Z,0
2018-07-03T01:15:30.740Z,0
2018-07-03T01:16:12.075Z,0
2018-07-03T01:16:52.542Z,0
2018-07-03T01:17:33.040Z,0
2018-07-03T01:18:14.261Z,0
2018-07-03T01:18:55.642Z,0
2018-07-03T01:19:36.138Z,0
2018-07-03T01:20:16.649Z,0
2018-07-03T01:20:59.109Z,0
2018-07-03T01:21:39.633Z,0
2018-07-03T01:22:20.139Z,0
2018-07-03T01:23:00.662Z,0
2018-07-03T01:23:41.149Z,0
2018-07-03T01:24:21.657Z,0
2018-07-03T01:25:02.119Z,0
2018-07-03T01:25:42.642Z,0
2018-07-03T01:26:23.131Z,0
2018-07-03T01:27:03.694Z,0
2018-07-03T01:27:44.269Z,0
2018-07-03T01:28:24.704Z,0
2018-07-03T01:29:05.993Z,0
2018-07-03T01:29:46.462Z,0
2018-07-03T01:30:28.345Z,0
2018-07-03T01:31:09.444Z,0
2018-07-03T01:31:51.727Z,0
2018-07-03T01:32:32.254Z,0
2018-07-03T01:33:14.722Z,0
2018-07-03T01:33:55.287Z,0
2018-07-03T01:34:35.730Z,0
2018-07-03T01:35:16.254Z,0
2018-07-03T01:35:56.718Z,0
2018-07-03T01:36:37.193Z,0
2018-07-03T01:37:17.728Z,0
2018-07-03T01:37:58.186Z,0
2018-07-03T01:38:38.658Z,0
2018-07-03T01:39:19.165Z,0
2018-07-03T01:40:02.666Z,0
2018-07-03T01:40:43.926Z,0
2018-07-03T01:41:26.022Z,0
2018-07-03T01:42:07.035Z,0
2018-07-03T01:42:47.577Z,0
2018-07-03T01:43:28.802Z,0
2018-07-03T01:44:09.337Z,0
2018-07-03T01:44:49.835Z,0
2018-07-03T01:45:31.222Z,0
2018-07-03T01:46:11.734Z,0
2018-07-03T01:46:52.210Z,0
2018-07-03T01:47:32.731Z,0
2018-07-03T01:48:13.221Z,0
2018-07-03T01:48:54.220Z,0
2018-07-03T01:49:34.714Z,0
2018-07-03T01:50:15.241Z,0
2018-07-03T01:50:55.771Z,0
2018-07-03T01:51:36.256Z,0
2018-07-03T01:52:16.779Z,0
2018-07-03T01:52:57.283Z,0
2018-07-03T01:53:37.789Z,0
2018-07-03T01:54:18.292Z,0
2018-07-03T01:54:58.814Z,0
2018-07-03T01:55:39.299Z,0
2018-07-03T01:56:20.326Z,0
2018-07-03T01:57:01.671Z,0
2018-07-03T01:57:42.142Z,0
2018-07-03T01:58:23.319Z,0
2018-07-03T01:59:03.857Z,0
2018-07-03T01:59:44.452Z,0
2018-07-03T02:00:25.613Z,0
2018-07-03T02:01:06.115Z,0
2018-07-03T02:01:46.634Z,0
2018-07-03T02:02:27.122Z,0
2018-07-03T02:03:07.639Z,0
2018-07-03T02:03:48.106Z,0
2018-07-03T02:04:28.620Z,0
2018-07-03T02:05:09.128Z,0
2018-07-03T02:05:49.666Z,0
2018-07-03T02:06:30.198Z,0
2018-07-03T02:07:10.704Z,0
2018-07-03T02:07:54.809Z,0
2018-07-03T02:08:35.815Z,0
2018-07-03T02:09:16.332Z,0
2018-07-03T02:09:57.810Z,0
2018-07-03T02:10:39.052Z,0
2018-07-03T02:11:20.452Z,0
2018-07-03T02:12:00.949Z,0
2018-07-03T02:12:41.493Z,0
2018-07-03T02:13:21.964Z,0
2018-07-03T02:14:02.464Z,0
2018-07-03T02:14:42.996Z,0
2018-07-03T02:15:23.518Z,0
2018-07-03T02:16:04.055Z,0
2018-07-03T02:16:44.535Z,0
2018-07-03T02:17:25.056Z,0
2018-07-03T02:18:06.554Z,0
2018-07-03T02:18:47.959Z,0
2018-07-03T02:19:29.073Z,0
2018-07-03T02:20:09.562Z,0
2018-07-03T02:20:50.073Z,0
2018-07-03T02:21:30.639Z,0
2018-07-03T02:22:11.059Z,0
2018-07-03T02:22:52.328Z,0
2018-07-03T02:23:33.755Z,0
2018-07-03T02:24:14.233Z,0
2018-07-03T02:24:54.721Z,0
2018-07-03T02:25:36.044Z,0
2018-07-03T02:26:16.530Z,0
2018-07-03T02:26:57.054Z,0
2018-07-03T02:27:37.505Z,0
2018-07-03T02:28:18.021Z,0
2018-07-03T02:28:58.510Z,0
2018-07-03T02:29:39.020Z,0
2018-07-03T02:30:20.326Z,0
2018-07-03T02:31:00.924Z,0
2018-07-03T02:31:41.392Z,0
2018-07-03T02:32:22.690Z,0
2018-07-03T02:33:03.147Z,0
2018-07-03T02:33:43.673Z,0
2018-07-03T02:34:24.167Z,0
2018-07-03T02:35:04.781Z,0
2018-07-03T02:35:45.207Z,0
2018-07-03T02:36:25.667Z,0
2018-07-03T02:37:06.167Z,0
2018-07-03T02:37:46.677Z,0
2018-07-03T02:38:27.184Z,0
2018-07-03T02:39:07.710Z,0
2018-07-03T02:39:48.969Z,0
2018-07-03T02:40:29.485Z,0
2018-07-03T02:41:09.985Z,0
2018-07-03T02:41:50.470Z,0
2018-07-03T02:42:30.956Z,0
2018-07-03T02:43:12.134Z,4
2018-07-03T02:43:52.640Z,4
2018-07-03T02:44:33.134Z,4
2018-07-03T02:45:13.672Z,0
2018-07-03T02:45:54.192Z,0
2018-07-03T02:46:34.663Z,0
2018-07-03T02:47:15.978Z,0
2018-07-03T02:47:57.246Z,4
2018-07-03T02:48:37.778Z,4
2018-07-03T02:49:18.277Z,0
2018-07-03T02:49:58.767Z,4
2018-07-03T02:50:39.269Z,4
2018-07-03T02:51:19.808Z,4
2018-07-03T02:52:00.298Z,4
2018-07-03T02:52:41.753Z,4
2018-07-03T02:53:22.845Z,4
2018-07-03T02:54:04.047Z,8
2018-07-03T02:54:44.477Z,4
2018-07-03T02:55:24.975Z,8
2018-07-03T02:56:06.481Z,8
2018-07-03T02:56:47.757Z,8
2018-07-03T02:57:28.273Z,8
2018-07-03T02:58:08.805Z,8
2018-07-03T02:58:49.325Z,12
2018-07-03T02:59:29.816Z,12
2018-07-03T03:00:10.976Z,12
2018-07-03T03:00:51.495Z,12
2018-07-03T03:01:33.666Z,16
2018-07-03T03:02:14.179Z,16
2018-07-03T03:02:54.692Z,16
2018-07-03T03:03:35.204Z,20
2018-07-03T03:04:15.717Z,20
2018-07-03T03:04:56.224Z,24
2018-07-03T03:05:36.743Z,28
2018-07-03T03:06:17.262Z,28
2018-07-03T03:06:57.781Z,32
2018-07-03T03:07:38.291Z,36
2018-07-03T03:08:19.474Z,40
2018-07-03T03:08:59.873Z,40
2018-07-03T03:09:40.357Z,44
2018-07-03T03:10:20.866Z,48
2018-07-03T03:11:01.378Z,52
2018-07-03T03:11:41.857Z,52
2018-07-03T03:12:22.978Z,60
2018-07-03T03:13:03.481Z,64
2018-07-03T03:13:43.978Z,72
2018-07-03T03:14:24.498Z,80
2018-07-03T03:15:05.018Z,84
2018-07-03T03:15:45.527Z,88
2018-07-03T03:16:28.265Z,92
2018-07-03T03:17:08.777Z,100
2018-07-03T03:17:50.199Z,108
2018-07-03T03:18:30.641Z,120
2018-07-03T03:19:11.151Z,128
2018-07-03T03:19:51.639Z,136
2018-07-03T03:20:32.163Z,148
2018-07-03T03:21:12.647Z,156
2018-07-03T03:21:53.115Z,168
2018-07-03T03:22:33.613Z,180
2018-07-03T03:23:14.088Z,192
2018-07-03T03:23:55.185Z,204
2018-07-03T03:24:35.691Z,216
2018-07-03T03:25:16.220Z,228
2018-07-03T03:25:57.350Z,244
2018-07-03T03:26:37.878Z,256
2018-07-03T03:27:18.351Z,272
2018-07-03T03:27:59.367Z,284
2018-07-03T03:28:40.354Z,300
2018-07-03T03:29:20.833Z,312
2018-07-03T03:30:01.342Z,328
2018-07-03T03:30:41.889Z,348
2018-07-03T03:31:22.407Z,360
2018-07-03T03:32:03.514Z,376
2018-07-03T03:32:43.983Z,396
2018-07-03T03:33:24.486Z,412
2018-07-03T03:34:06.812Z,432
2018-07-03T03:34:47.858Z,452
2018-07-03T03:35:28.387Z,472
2018-07-03T03:36:09.144Z,496
2018-07-03T03:36:50.256Z,520
2018-07-03T03:37:31.373Z,544
2018-07-03T03:38:11.853Z,572
2018-07-03T03:38:52.326Z,596
2018-07-03T03:39:32.853Z,624
2018-07-03T03:40:13.340Z,652
2018-07-03T03:40:53.903Z,676
2018-07-03T03:41:34.320Z,704
2018-07-03T03:42:15.389Z,732
2018-07-03T03:42:55.834Z,760
2018-07-03T03:43:36.331Z,788
2018-07-03T03:44:18.400Z,812
2018-07-03T03:44:59.709Z,844
2018-07-03T03:45:40.125Z,868
2018-07-03T03:46:20.661Z,904
2018-07-03T03:47:01.168Z,932
2018-07-03T03:47:41.631Z,964
2018-07-03T03:48:22.107Z,992
2018-07-03T03:49:02.628Z,1024
2018-07-03T03:49:43.078Z,1052
2018-07-03T03:50:24.989Z,1088
2018-07-03T03:51:05.461Z,1120
2018-07-03T03:51:46.720Z,1152
2018-07-03T03:52:27.222Z,1192
2018-07-03T03:53:10.738Z,1224
2018-07-03T03:53:51.257Z,1256
2018-07-03T03:54:31.719Z,1292
2018-07-03T03:55:12.184Z,1328
2018-07-03T03:55:52.651Z,1360
2018-07-03T03:56:33.168Z,1396
2018-07-03T03:57:13.950Z,1436
2018-07-03T03:57:54.426Z,1472
2018-07-03T03:58:35.634Z,1508
2018-07-03T03:59:17.121Z,1540
2018-07-03T03:59:57.584Z,1584
2018-07-03T04:00:38.017Z,1616
2018-07-03T04:01:19.129Z,1648
2018-07-03T04:02:01.247Z,1676
2018-07-03T04:02:42.296Z,1720
2018-07-03T04:03:23.620Z,1748
2018-07-03T04:04:04.104Z,1784
2018-07-03T04:04:44.669Z,1824
2018-07-03T04:05:25.185Z,1856
2018-07-03T04:06:05.662Z,1896
2018-07-03T04:06:46.884Z,1928
2018-07-03T04:07:28.578Z,1976
2018-07-03T04:08:09.003Z,2024
2018-07-03T04:08:50.068Z,2076
2018-07-03T04:09:30.584Z,2116
2018-07-03T04:10:11.068Z,2180
2018-07-03T04:10:51.581Z,2284
2018-07-03T04:11:33.708Z,2564
2018-07-03T04:12:14.200Z,2828
2018-07-03T04:12:55.729Z,2936
2018-07-03T04:13:36.227Z,2656
2018-07-03T04:14:16.727Z,2372
2018-07-03T04:14:57.258Z,2380
2018-07-03T04:15:38.295Z,2404
2018-07-03T04:16:18.825Z,2444
2018-07-03T04:16:59.303Z,2480
2018-07-03T04:17:39.779Z,2508
2018-07-03T04:18:20.288Z,2544
2018-07-03T04:19:00.786Z,2568
2018-07-03T04:19:41.268Z,2584
2018-07-03T04:20:21.758Z,2600
2018-07-03T04:21:02.258Z,2616
2018-07-03T04:21:42.762Z,2608
2018-07-03T04:22:23.290Z,2620
2018-07-03T04:23:03.767Z,2612
2018-07-03T04:23:44.927Z,2588
2018-07-03T04:24:25.427Z,2592
2018-07-03T04:25:05.901Z,2592
2018-07-03T04:25:46.888Z,2576
2018-07-03T04:26:28.034Z,2580
2018-07-03T04:27:09.247Z,2564
2018-07-03T04:27:49.744Z,2568
2018-07-03T04:28:30.239Z,2596
2018-07-03T04:29:11.617Z,2588
2018-07-03T04:29:52.152Z,2608
2018-07-03T04:30:32.668Z,2636
2018-07-03T04:31:13.152Z,2664
2018-07-03T04:31:53.652Z,2792
2018-07-03T04:32:34.168Z,2712
2018-07-03T04:33:14.704Z,2652
2018-07-03T04:33:55.241Z,2652
2018-07-03T04:34:36.400Z,2620
2018-07-03T04:35:16.897Z,2612
2018-07-03T04:35:58.251Z,2604
2018-07-03T04:36:38.755Z,2640
2018-07-03T04:37:19.282Z,2648
2018-07-03T04:37:59.779Z,2676
2018-07-03T04:38:40.249Z,2732
2018-07-03T04:39:20.765Z,2824
2018-07-03T04:40:02.217Z,2868
2018-07-03T04:40:43.616Z,2968
2018-07-03T04:41:26.069Z,3156
2018-07-03T04:42:08.231Z,3248
2018-07-03T04:42:48.717Z,3448
2018-07-03T04:43:29.222Z,3940
2018-07-03T04:44:09.818Z,4060
2018-07-03T04:44:50.238Z,9084
2018-07-03T04:45:31.396Z,6924
2018-07-03T04:46:11.899Z,6004
2018-07-03T04:46:52.469Z,9988
2018-07-03T04:47:32.894Z,6456
2018-07-03T04:48:13.339Z,5504
2018-07-03T04:48:53.869Z,3612
2018-07-03T04:49:34.416Z,4012
2018-07-03T04:50:15.410Z,3996
2018-07-03T04:50:55.961Z,4112
2018-07-03T04:51:37.312Z,3816
2018-07-03T04:52:17.889Z,3452
2018-07-03T04:52:58.361Z,3396
2018-07-03T04:53:38.862Z,3324
2018-07-03T04:54:19.371Z,3376
2018-07-03T04:54:59.839Z,3364
2018-07-03T04:55:40.338Z,3644
2018-07-03T04:56:21.438Z,4324
2018-07-03T04:57:01.921Z,4432
2018-07-03T04:57:42.401Z,4268
2018-07-03T04:58:22.876Z,5268
2018-07-03T04:59:03.383Z,5540
2018-07-03T04:59:43.864Z,3916
2018-07-03T05:00:24.323Z,3608
2018-07-03T05:01:04.866Z,3596
2018-07-03T05:01:45.318Z,3516
2018-07-03T05:02:25.889Z,3616
2018-07-03T05:03:06.413Z,3984
2018-07-03T05:03:46.861Z,4752
2018-07-03T05:04:27.367Z,3820
2018-07-03T05:05:07.838Z,4164
2018-07-03T05:05:50.215Z,3628
2018-07-03T05:06:30.713Z,3368
2018-07-03T05:07:11.410Z,3340
2018-07-03T05:07:52.075Z,3436
2018-07-03T05:08:32.609Z,3372
2018-07-03T05:09:12.955Z,3548
2018-07-03T05:09:53.435Z,3340
2018-07-03T05:10:33.944Z,3388
2018-07-03T05:11:14.471Z,3316
2018-07-03T05:11:55.574Z,3420
2018-07-03T05:12:36.074Z,3396
2018-07-03T05:13:16.583Z,3464
2018-07-03T05:13:57.073Z,3540
2018-07-03T05:14:37.567Z,3880
2018-07-03T05:15:18.056Z,4144
2018-07-03T05:15:58.613Z,3704
2018-07-03T05:16:39.118Z,3468
2018-07-03T05:17:20.318Z,3520
2018-07-03T05:18:00.798Z,4632
2018-07-03T05:18:41.948Z,7708
2018-07-03T05:19:23.301Z,8108
2018-07-03T05:20:04.684Z,9372
2018-07-03T05:20:45.154Z,9156
2018-07-03T05:21:26.174Z,4400
2018-07-03T05:22:06.677Z,4096
2018-07-03T05:22:47.138Z,3904
2018-07-03T05:23:27.804Z,4120
2018-07-03T05:24:08.279Z,4156
2018-07-03T05:24:49.060Z,4152
2018-07-03T05:25:29.505Z,4876
2018-07-03T05:26:10.025Z,6460
2018-07-03T05:26:50.616Z,12512
2018-07-03T05:27:31.177Z,10412
2018-07-03T05:28:11.660Z,5760
2018-07-03T05:28:52.089Z,5564
2018-07-03T05:29:32.570Z,4596
2018-07-03T05:30:14.113Z,4872
2018-07-03T05:30:54.551Z,4060
2018-07-03T05:31:35.119Z,4004
2018-07-03T05:32:15.588Z,3940
2018-07-03T05:32:56.034Z,4140
2018-07-03T05:33:36.570Z,4248
2018-07-03T05:34:17.028Z,4556
2018-07-03T05:34:57.578Z,4520
2018-07-03T05:35:38.055Z,4568
2018-07-03T05:36:18.576Z,4396
2018-07-03T05:36:59.059Z,4224
2018-07-03T05:37:39.541Z,4420
2018-07-03T05:38:20.646Z,4312
2018-07-03T05:39:01.215Z,4080
2018-07-03T05:39:41.649Z,3984
2018-07-03T05:40:22.154Z,3980
2018-07-03T05:41:02.640Z,3916
2018-07-03T05:41:44.092Z,4000
2018-07-03T05:42:25.374Z,3944
2018-07-03T05:44:23.553Z,3980
2018-07-03T05:45:05.587Z,3992
2018-07-03T05:45:46.109Z,4124
2018-07-03T05:46:26.613Z,4028
2018-07-03T05:47:07.129Z,4080
2018-07-03T05:47:48.432Z,4052
2018-07-03T05:48:28.982Z,4076
2018-07-03T05:49:09.480Z,4240
2018-07-03T05:49:49.964Z,4036
2018-07-03T05:50:30.501Z,4052
2018-07-03T05:51:11.036Z,4088
2018-07-03T05:51:51.579Z,4264
2018-07-03T05:52:32.078Z,4528
2018-07-03T05:53:12.580Z,4500
2018-07-03T05:53:53.188Z,4340
2018-07-03T05:54:33.789Z,4396
2018-07-03T05:55:14.334Z,4384
2018-07-03T05:55:54.876Z,4420
2018-07-03T05:56:35.484Z,6180
2018-07-03T05:57:15.848Z,4592
2018-07-03T05:57:57.104Z,6528
2018-07-03T05:58:37.648Z,7952
2018-07-03T05:59:18.126Z,5856
2018-07-03T05:59:58.609Z,6592
2018-07-03T06:00:39.930Z,9324
2018-07-03T06:01:20.467Z,7304
2018-07-03T06:02:01.943Z,7492
2018-07-03T06:02:42.511Z,10036
2018-07-03T06:03:22.965Z,9048
2018-07-03T06:04:03.398Z,10008
2018-07-03T06:04:43.940Z,10148
2018-07-03T06:05:24.675Z,9872
2018-07-03T06:06:05.181Z,9564
2018-07-03T06:06:45.650Z,9348
2018-07-03T06:07:26.149Z,9120
2018-07-03T06:08:06.614Z,8840
2018-07-03T06:08:47.290Z,8760
2018-07-03T06:09:27.662Z,8776
2018-07-03T06:10:09.537Z,8800
2018-07-03T06:10:50.032Z,8820
2018-07-03T06:11:31.544Z,8808
2018-07-03T06:12:12.043Z,8784
2018-07-03T06:12:52.562Z,8740
2018-07-03T06:13:33.053Z,8760
2018-07-03T06:14:13.614Z,8720
2018-07-03T06:14:54.230Z,8648
2018-07-03T06:15:34.611Z,8644
2018-07-03T06:16:16.011Z,8652
2018-07-03T06:16:56.491Z,8684
2018-07-03T06:17:37.020Z,8700
2018-07-03T06:18:17.508Z,8740
2018-07-03T06:18:58.115Z,8752
2018-07-03T06:19:38.611Z,8788
2018-07-03T06:20:20.143Z,8740
2018-07-03T06:21:00.672Z,8756
2018-07-03T06:21:43.612Z,8764
2018-07-03T06:22:24.168Z,8756
2018-07-03T06:23:04.650Z,8756
2018-07-03T06:23:45.146Z,8724
2018-07-03T06:24:26.522Z,8716
2018-07-03T06:25:07.076Z,8692
2018-07-03T06:25:48.336Z,8668
2018-07-03T06:26:28.641Z,8620
2018-07-03T06:27:09.111Z,8616
2018-07-03T06:27:49.658Z,8592
2018-07-03T06:28:30.208Z,8540
2018-07-03T06:29:10.814Z,8512
2018-07-03T06:29:51.243Z,8496
2018-07-03T06:30:31.882Z,8492
2018-07-03T06:31:12.969Z,8464
2018-07-03T06:31:53.361Z,8476
2018-07-03T06:32:33.920Z,8464
2018-07-03T06:33:14.444Z,8436
2018-07-03T06:33:54.959Z,8420
2018-07-03T06:34:35.458Z,8392
2018-07-03T06:35:15.951Z,8352
2018-07-03T06:35:57.307Z,8320
2018-07-03T06:36:38.474Z,8292
2018-07-03T06:37:20.861Z,8272
2018-07-03T06:38:01.359Z,8260
2018-07-03T06:38:41.876Z,8252
2018-07-03T06:39:23.230Z,8228
2018-07-03T06:40:04.427Z,8216
2018-07-03T06:40:44.976Z,8236
2018-07-03T06:41:25.477Z,8216
2018-07-03T06:42:06.540Z,8208
2018-07-03T06:42:47.146Z,8192
2018-07-03T06:43:27.673Z,8172
2018-07-03T06:44:09.774Z,8148
2018-07-03T06:44:50.195Z,8132
2018-07-03T06:45:30.727Z,8116
2018-07-03T06:46:12.125Z,8120
2018-07-03T06:46:52.594Z,8092
2018-07-03T06:47:33.113Z,8084
2018-07-03T06:48:13.595Z,8068
2018-07-03T06:48:55.053Z,8032
2018-07-03T06:49:36.116Z,8016
2018-07-03T06:50:16.554Z,7996
2018-07-03T06:50:57.044Z,7972
2018-07-03T06:51:37.568Z,7932
2018-07-03T06:52:18.103Z,7904
2018-07-03T06:52:58.594Z,7888
2018-07-03T06:53:39.767Z,7872
2018-07-03T06:54:20.247Z,7848
2018-07-03T06:55:00.746Z,7824
2018-07-03T06:55:41.268Z,7796
2018-07-03T06:56:22.465Z,7764
2018-07-03T06:57:04.577Z,7744
2018-07-03T06:57:45.054Z,7720
2018-07-03T06:58:25.588Z,7712
2018-07-03T06:59:06.067Z,7684
2018-07-03T06:59:47.059Z,7660
2018-07-03T07:00:27.544Z,7628
2018-07-03T07:01:08.788Z,7604
2018-07-03T07:01:49.279Z,7580
2018-07-03T07:02:30.463Z,7560
2018-07-03T07:03:11.015Z,7544
2018-07-03T07:03:51.531Z,7520
2018-07-03T07:04:32.894Z,7496
2018-07-03T07:05:13.377Z,7472
2018-07-03T07:05:54.859Z,7456
2018-07-03T07:06:37.584Z,7444
2018-07-03T07:07:18.163Z,7404
2018-07-03T07:07:58.584Z,7380
2018-07-03T07:08:39.125Z,7368
2018-07-03T07:09:20.592Z,7324
2018-07-03T07:10:00.916Z,7304
2018-07-03T07:10:42.542Z,7292
2018-07-03T07:11:22.975Z,7264
2018-07-03T07:12:03.489Z,7236
2018-07-03T07:12:43.941Z,7212
2018-07-03T07:13:25.424Z,7180
2018-07-03T07:14:05.919Z,7140
2018-07-03T07:14:46.429Z,7124
2018-07-03T07:15:26.943Z,7108
2018-07-03T07:16:07.479Z,7084
2018-07-03T07:16:47.941Z,7040
2018-07-03T07:17:28.416Z,7028
2018-07-03T07:18:08.998Z,6996
2018-07-03T07:18:49.453Z,6972
2018-07-03T07:19:30.784Z,6948
2018-07-03T07:20:11.256Z,6920
2018-07-03T07:20:51.861Z,6904
2018-07-03T07:21:32.385Z,6888
2018-07-03T07:22:13.456Z,6864
2018-07-03T07:22:55.466Z,6840
2018-07-03T07:23:36.018Z,6820
2018-07-03T07:24:16.474Z,6788
2018-07-03T07:24:56.947Z,6752
2018-07-03T07:25:37.475Z,6732
2018-07-03T07:26:18.023Z,6708
2018-07-03T07:26:58.522Z,6680
2018-07-03T07:27:39.030Z,6660
2018-07-03T07:28:20.148Z,6632
2018-07-03T07:29:00.678Z,6588
2018-07-03T07:29:41.176Z,6564
2018-07-03T07:30:22.437Z,6532
2018-07-03T07:31:02.904Z,6504
2018-07-03T07:31:43.383Z,6484
2018-07-03T07:32:23.910Z,6464
2018-07-03T07:33:04.379Z,6440
2018-07-03T07:33:44.921Z,6428
2018-07-03T07:34:25.480Z,6412
2018-07-03T07:35:06.477Z,6380
2018-07-03T07:35:46.963Z,6356
2018-07-03T07:36:27.491Z,6340
2018-07-03T07:37:08.001Z,6320
2018-07-03T07:37:48.628Z,6296
2018-07-03T07:38:29.074Z,6276
2018-07-03T07:39:09.579Z,6256
2018-07-03T07:39:50.075Z,6236
2018-07-03T07:40:30.605Z,6216
2018-07-03T07:41:11.056Z,6176
2018-07-03T07:41:51.550Z,6168
2018-07-03T07:42:32.096Z,6140
2018-07-03T07:43:12.579Z,6124
2018-07-03T07:43:53.002Z,6096
2018-07-03T07:44:33.524Z,6064
2018-07-03T07:45:14.065Z,6048
2018-07-03T07:45:54.567Z,6040
2018-07-03T07:46:36.034Z,6020
2018-07-03T07:47:16.524Z,5996
2018-07-03T07:47:57.036Z,5980
2018-07-03T07:48:37.512Z,5952
2018-07-03T07:49:18.036Z,5932
2018-07-03T07:49:58.516Z,5904
2018-07-03T07:50:39.072Z,5884
2018-07-03T07:51:20.616Z,5868
2018-07-03T07:52:01.111Z,5844
2018-07-03T07:52:41.601Z,5816
2018-07-03T07:53:22.153Z,5800
2018-07-03T07:54:02.661Z,5768
2018-07-03T07:54:43.171Z,5752
2018-07-03T07:55:24.485Z,5728
2018-07-03T07:56:05.636Z,5708
2018-07-03T07:56:46.103Z,5684
2018-07-03T07:57:26.600Z,5668
2018-07-03T07:58:07.119Z,5632
2018-07-03T07:58:47.589Z,5612
2018-07-03T07:59:28.072Z,5588
2018-07-03T08:00:08.618Z,5564
2018-07-03T08:00:49.837Z,5540
2018-07-03T08:01:30.322Z,5512
2018-07-03T08:02:11.300Z,5496
2018-07-03T08:02:51.817Z,5480
2018-07-03T08:03:32.298Z,5456
2018-07-03T08:04:12.825Z,5440
2018-07-03T08:04:53.891Z,5416
2018-07-03T08:05:34.574Z,5396
2018-07-03T08:06:14.938Z,5376
2018-07-03T08:06:55.437Z,5348
2018-07-03T08:07:36.710Z,5332
2018-07-03T08:08:19.118Z,5304
2018-07-03T08:09:00.327Z,5280
2018-07-03T08:09:40.816Z,5260
2018-07-03T08:10:21.798Z,5240
2018-07-03T08:11:03.165Z,5216
2018-07-03T08:11:43.675Z,5188
2018-07-03T08:12:24.168Z,5160
2018-07-03T08:13:04.767Z,5144
2018-07-03T08:13:45.233Z,5116
2018-07-03T08:14:26.688Z,5088
2018-07-03T08:15:07.191Z,5068
2018-07-03T08:15:48.410Z,5040
2018-07-03T08:16:28.873Z,5012
2018-07-03T08:17:10.302Z,4988
2018-07-03T08:17:50.799Z,4972
2018-07-03T08:18:32.178Z,4948
2018-07-03T08:19:12.718Z,4928
2018-07-03T08:19:53.823Z,4900
2018-07-03T08:20:35.079Z,4880
2018-07-03T08:21:15.615Z,4848
2018-07-03T08:21:56.893Z,4820
2018-07-03T08:22:37.443Z,4800
2018-07-03T08:23:17.931Z,4764
2018-07-03T08:23:58.494Z,4740
2018-07-03T08:24:39.640Z,4708
2018-07-03T08:25:20.133Z,4676
2018-07-03T08:26:00.629Z,4648
2018-07-03T08:26:41.204Z,4608
2018-07-03T08:27:21.701Z,4584
2018-07-03T08:28:02.166Z,4560
2018-07-03T08:28:42.661Z,4540
2018-07-03T08:29:23.200Z,4500
2018-07-03T08:30:04.231Z,4436
2018-07-03T08:30:44.686Z,4364
2018-07-03T08:31:27.102Z,4260
2018-07-03T08:32:07.616Z,4144
2018-07-03T08:32:48.141Z,4036
2018-07-03T08:33:28.622Z,3940
2018-07-03T08:34:09.262Z,3868
2018-07-03T08:34:49.702Z,3816
2018-07-03T08:35:30.867Z,3776
2018-07-03T08:36:11.325Z,3756
2018-07-03T08:36:51.955Z,3736
2018-07-03T08:37:33.098Z,3724
2018-07-03T08:38:13.607Z,3716
2018-07-03T08:38:54.104Z,3696
2018-07-03T08:39:34.813Z,3688
2018-07-03T08:40:15.305Z,3684
2018-07-03T08:40:55.810Z,3660
2018-07-03T08:41:36.297Z,3656
2018-07-03T08:42:17.519Z,3636
2018-07-03T08:42:58.087Z,3628
2018-07-03T08:43:38.527Z,3612
2018-07-03T08:44:19.056Z,3596
2018-07-03T08:44:59.551Z,3580
2018-07-03T08:45:40.689Z,3556
2018-07-03T08:46:21.222Z,3548
2018-07-03T08:47:01.760Z,3532
2018-07-03T08:47:42.247Z,3516
2018-07-03T08:48:22.774Z,3500
2018-07-03T08:49:03.267Z,3488
2018-07-03T08:49:43.759Z,3472
2018-07-03T08:50:24.264Z,3448
2018-07-03T08:51:04.752Z,3440
2018-07-03T08:51:45.312Z,3428
2018-07-03T08:52:25.815Z,3416
2018-07-03T08:53:06.273Z,3408
2018-07-03T08:53:46.747Z,3400
2018-07-03T08:54:27.831Z,3388
2018-07-03T08:55:09.262Z,3376
2018-07-03T08:55:49.770Z,3360
2018-07-03T08:56:30.274Z,3356
2018-07-03T08:57:10.717Z,3344
2018-07-03T08:57:51.844Z,3332
2018-07-03T08:58:32.352Z,3320
2018-07-03T08:59:12.886Z,3304
2018-07-03T08:59:53.394Z,3292
2018-07-03T09:00:34.507Z,3284
2018-07-03T09:01:14.963Z,3280
2018-07-03T09:01:55.485Z,3268
2018-07-03T09:02:35.988Z,3260
2018-07-03T09:03:16.470Z,3252
2018-07-03T09:03:56.975Z,3244
2018-07-03T09:04:38.363Z,3240
2018-07-03T09:05:19.009Z,3232
2018-07-03T09:05:59.467Z,3228
2018-07-03T09:06:40.625Z,3228
2018-07-03T09:07:21.101Z,3220
2018-07-03T09:08:01.609Z,3216
2018-07-03T09:08:42.081Z,3208
2018-07-03T09:09:22.619Z,3208
2018-07-03T09:10:03.109Z,3208
2018-07-03T09:10:43.606Z,3204
2018-07-03T09:11:24.198Z,3200
2018-07-03T09:12:04.691Z,3196
2018-07-03T09:12:46.145Z,3192
2018-07-03T09:13:26.624Z,3188
2018-07-03T09:14:08.620Z,3180
2018-07-03T09:14:50.702Z,3176
2018-07-03T09:15:32.139Z,3176
2018-07-03T09:16:12.604Z,3168
2018-07-03T09:16:53.139Z,3168
2018-07-03T09:17:33.628Z,3160
2018-07-03T09:18:14.189Z,3156
2018-07-03T09:18:54.671Z,3152
2018-07-03T09:19:35.152Z,3152
2018-07-03T09:20:15.706Z,3152
2018-07-03T09:20:56.217Z,3152
2018-07-03T09:21:36.734Z,3144
2018-07-03T09:22:17.216Z,3140
2018-07-03T09:22:57.718Z,3140
2018-07-03T09:23:38.267Z,3132
2018-07-03T09:24:18.694Z,3136
2018-07-03T09:25:00.241Z,3132